Terminal Aerodrome Forecast
Issued by NWS

Home | Current Version | Previous Version | Graphics & Text | Print | Product List | Glossary On
Versions: 1 2 3 4 5 6 7 8 9 10 11 12 13 14 15 16 17 18 19
000
FTUS42 KMHX 151600 AAD
TAFISO
TAF AMD
KISO 151610Z 1516/1612 20010G15KT P6SM SCT025 OVC250
     FM151800 19014G22KT P6SM SCT015 OVC110
     FM152000 20015G23KT P6SM SHRA VCTS SCT007 BKN020CB
     FM160100 34018G26KT P6SM -RA SCT007 BKN015
     FM160500 36014G22KT P6SM SCT025
      AMD LTD TO CLD VIS AND WIND=

USA.gov is the U.S. government's official web portal to all federal, state and local government web resources and services.